Time;durP1;ratioP1;P1;durP2;ratioP2;P2;SDS_P1;SDS_P2;PMS_P1;PMS_P2;Temp;Humidity;BMP_temperature;BMP_pressure;BME280_temperature;BME280_humidity;BME280_pressure;Samples;Min_cycle;Max_cycle;Signal;HPM_P1;HPM_P2
2023/03/24 00:01:04;;;;;;;5.38;2.42;;;12.60;99.90;;;;;;5153226;27;20026;-68
2023/03/24 00:03:31;;;;;;;4.20;2.30;;;12.50;99.90;;;;;;5154356;27;20023;-68
2023/03/24 00:06:02;;;;;;;2.88;2.33;;;12.50;99.90;;;;;;5153264;27;20065;-67
2023/03/24 00:08:29;;;;;;;3.28;2.50;;;12.30;99.90;;;;;;5154351;27;20072;-67
2023/03/24 00:10:59;;;;;;;2.75;2.05;;;12.30;99.90;;;;;;5146787;27;20030;-68
2023/03/24 00:13:24;;;;;;;2.58;1.92;;;12.30;99.90;;;;;;5133207;27;20027;-67
2023/03/24 00:15:50;;;;;;;2.53;1.88;;;12.30;99.90;;;;;;5133146;27;20029;-68
2023/03/24 00:18:17;;;;;;;3.33;2.00;;;12.30;99.90;;;;;;5133003;27;20084;-67
2023/03/24 00:20:44;;;;;;;3.08;2.40;;;12.40;99.90;;;;;;5132909;27;20075;-67
2023/03/24 00:23:11;;;;;;;2.65;2.10;;;12.40;99.90;;;;;;5132663;27;20027;-67
2023/03/24 00:25:38;;;;;;;2.35;2.08;;;12.50;99.90;;;;;;5132905;27;20031;-68
2023/03/24 00:28:06;;;;;;;3.13;2.10;;;12.60;99.90;;;;;;5133084;27;20448;-68
2023/03/24 00:30:33;;;;;;;2.55;2.13;;;12.60;99.90;;;;;;5151972;27;20157;-68
2023/03/24 00:33:00;;;;;;;4.32;2.15;;;12.70;99.90;;;;;;5153428;27;20023;-68
2023/03/24 00:35:27;;;;;;;4.93;2.10;;;12.70;99.90;;;;;;5153393;27;20030;-67
2023/03/24 00:37:53;;;;;;;3.00;2.05;;;12.80;99.90;;;;;;5153419;27;20589;-67
2023/03/24 00:40:20;;;;;;;4.22;1.73;;;12.90;99.90;;;;;;5152995;27;20105;-67
2023/03/24 00:42:47;;;;;;;8.20;2.60;;;13.10;99.90;;;;;;5153431;27;20019;-67
2023/03/24 00:45:19;;;;;;;2.95;2.00;;;13.20;99.90;;;;;;5152897;27;20029;-68
2023/03/24 00:47:48;;;;;;;2.80;2.03;;;13.30;99.90;;;;;;5141990;27;20043;-68
2023/03/24 00:50:16;;;;;;;4.97;2.47;;;13.40;99.90;;;;;;5130841;28;20019;-67
2023/03/24 00:52:46;;;;;;;2.45;1.85;;;13.50;99.90;;;;;;5132022;28;20111;-67
2023/03/24 00:55:14;;;;;;;2.80;1.92;;;13.50;99.90;;;;;;5131036;28;20713;-67
2023/03/24 00:57:51;;;;;;;3.90;2.00;;;13.60;99.90;;;;;;5132171;28;20050;-67
2023/03/24 01:00:26;;;;;;;2.28;1.70;;;13.50;99.90;;;;;;5131173;28;20035;-67
2023/03/24 01:02:53;;;;;;;5.63;2.20;;;13.60;99.90;;;;;;5131521;28;20393;-67
2023/03/24 01:05:28;;;;;;;2.35;2.15;;;13.60;99.90;;;;;;5137678;27;20476;-68
2023/03/24 01:08:02;;;;;;;5.90;1.92;;;13.60;99.90;;;;;;5152041;27;20033;-68
2023/03/24 01:10:29;;;;;;;2.40;1.70;;;13.60;99.90;;;;;;5151828;27;20014;-68
2023/03/24 01:12:57;;;;;;;2.17;1.95;;;13.60;99.90;;;;;;5151930;27;20059;-68
2023/03/24 01:15:26;;;;;;;2.42;1.85;;;13.60;99.90;;;;;;5151626;27;20076;-68
2023/03/24 01:17:53;;;;;;;2.25;1.80;;;13.60;99.90;;;;;;5151738;27;20033;-68
2023/03/24 01:20:19;;;;;;;2.33;1.67;;;13.60;99.90;;;;;;5147424;27;20373;-68
2023/03/24 01:22:45;;;;;;;2.67;1.98;;;13.70;99.90;;;;;;5151902;27;20383;-67
2023/03/24 01:25:16;;;;;;;3.80;1.90;;;13.70;99.90;;;;;;5150101;27;20018;-68
2023/03/24 01:27:43;;;;;;;3.47;2.15;;;13.60;99.90;;;;;;5152341;27;20110;-68
2023/03/24 01:30:15;;;;;;;4.88;2.03;;;13.60;99.90;;;;;;5151215;27;20037;-68
2023/03/24 01:32:42;;;;;;;4.65;2.63;;;13.60;99.90;;;;;;5152574;27;20023;-68
2023/03/24 01:35:10;;;;;;;2.70;1.90;;;13.50;99.90;;;;;;5146707;27;20369;-67
2023/03/24 01:37:36;;;;;;;2.47;1.92;;;13.50;99.90;;;;;;5152221;27;20125;-69
2023/03/24 01:40:07;;;;;;;2.42;1.80;;;13.40;99.90;;;;;;5151344;27;20041;-68
2023/03/24 01:42:32;;;;;;;5.35;2.20;;;13.30;99.90;;;;;;5152425;27;20023;-67
2023/03/24 01:45:20;;;;;;;2.75;1.58;;;13.30;99.90;;;;;;5150802;27;20022;-68
2023/03/24 01:47:46;;;;;;;2.10;1.70;;;13.30;99.90;;;;;;5111851;27;1112759;-67
2023/03/24 01:50:13;;;;;;;3.60;2.20;;;13.20;99.90;;;;;;5151426;27;20109;-68
2023/03/24 01:52:41;;;;;;;3.65;1.80;;;13.30;99.90;;;;;;5140732;27;20063;-67
2023/03/24 01:55:12;;;;;;;2.83;1.80;;;13.30;99.90;;;;;;5151518;27;20478;-68
2023/03/24 01:57:43;;;;;;;4.00;1.80;;;13.30;99.90;;;;;;5152853;27;20118;-67
2023/03/24 02:00:11;;;;;;;;;;;13.30;99.90;;;;;;5152065;27;20849;-68
2023/03/24 02:02:39;;;;;;;2.85;2.03;;;13.30;99.90;;;;;;5134547;27;19907;-67
2023/03/24 02:05:09;;;;;;;2.00;1.60;;;13.30;99.90;;;;;;5151188;27;20498;-67
2023/03/24 02:07:56;;;;;;;2.05;1.85;;;13.30;99.90;;;;;;5152808;27;20023;-67
2023/03/24 02:10:23;;;;;;;3.38;1.83;;;13.20;99.90;;;;;;5148631;27;20396;-67
2023/03/24 02:12:49;;;;;;;3.28;1.83;;;13.20;99.90;;;;;;5152687;27;20027;-67
2023/03/24 02:15:17;;;;;;;3.90;1.88;;;13.30;99.90;;;;;;5151726;27;20311;-67
2023/03/24 02:18:01;;;;;;;2.47;1.73;;;13.30;99.90;;;;;;5152783;27;20018;-67
2023/03/24 02:20:48;;;;;;;2.10;1.58;;;13.40;99.90;;;;;;5152300;27;20035;-67
2023/03/24 02:23:46;;;;;;;2.58;1.67;;;13.50;99.90;;;;;;5151607;27;20026;-67
2023/03/24 02:26:27;;;;;;;2.67;1.80;;;13.50;99.90;;;;;;5087511;27;20067;-67
2023/03/24 02:29:40;;;;;;;1.95;1.70;;;13.60;99.90;;;;;;5131130;28;20035;-67
2023/03/24 02:32:40;;;;;;;4.43;1.63;;;13.60;99.90;;;;;;5130315;28;20541;-67
2023/03/24 02:35:24;;;;;;;;;;;13.60;99.90;;;;;;5131707;27;20042;-67
2023/03/24 02:38:21;;;;;;;2.53;1.60;;;13.60;99.90;;;;;;5135259;27;19907;-69
2023/03/24 02:41:15;;;;;;;4.15;1.77;;;13.60;99.90;;;;;;5135005;27;20121;-67
2023/03/24 02:43:55;;;;;;;2.97;1.48;;;13.60;99.90;;;;;;5152860;27;20468;-67
2023/03/24 02:46:26;;;;;;;;;;;13.60;99.90;;;;;;5152539;27;20054;-67
2023/03/24 02:49:07;;;;;;;2.92;1.52;;;13.60;99.90;;;;;;5155553;27;19935;-67
2023/03/24 02:51:48;;;;;;;2.40;1.58;;;13.70;99.90;;;;;;5155273;27;20110;-67
2023/03/24 02:54:29;;;;;;;3.63;1.55;;;13.80;99.90;;;;;;5155328;27;20026;-67
2023/03/24 02:57:07;;;;;;;2.95;1.55;;;14.00;99.90;;;;;;5154467;27;20019;-67
2023/03/24 02:59:48;;;;;;;2.78;1.52;;;14.10;99.90;;;;;;5155791;27;20055;-67
2023/03/24 03:02:22;;;;;;;1.67;1.42;;;14.20;99.90;;;;;;5148956;27;20038;-67
2023/03/24 03:05:04;;;;;;;3.40;1.45;;;14.30;99.90;;;;;;5155861;27;20027;-67
2023/03/24 03:07:36;;;;;;;2.20;1.38;;;14.40;99.90;;;;;;5155576;27;20022;-67
2023/03/24 03:10:12;;;;;;;2.53;1.40;;;14.40;99.90;;;;;;5154493;27;20073;-68
2023/03/24 03:12:39;;;;;;;1.70;1.58;;;14.50;99.90;;;;;;5155621;27;20019;-67
2023/03/24 03:15:09;;;;;;;1.58;1.27;;;14.50;99.90;;;;;;5153951;27;20396;-67
2023/03/24 03:17:42;;;;;;;2.92;1.80;;;14.60;99.90;;;;;;5149834;27;20457;-67
2023/03/24 03:20:13;;;;;;;2.67;1.70;;;14.60;99.90;;;;;;5154302;27;20039;-67
2023/03/24 03:22:49;;;;;;;1.42;1.25;;;14.60;99.90;;;;;;5155280;27;20473;-67
2023/03/24 03:25:21;;;;;;;1.48;1.38;;;14.70;99.90;;;;;;5154321;27;20034;-68
2023/03/24 03:27:47;;;;;;;3.08;1.55;;;14.60;99.90;;;;;;5155089;27;20106;-67
2023/03/24 03:30:17;;;;;;;1.92;1.30;;;14.70;99.90;;;;;;5153871;27;20034;-67
2023/03/24 03:32:53;;;;;;;2.13;1.70;;;14.70;99.90;;;;;;5155220;27;20483;-69
2023/03/24 03:35:28;;;;;;;2.08;1.58;;;14.70;99.90;;;;;;5149130;27;20011;-67
2023/03/24 03:38:20;;;;;;;3.10;1.63;;;14.70;99.90;;;;;;5154089;27;20029;-67
2023/03/24 03:40:48;;;;;;;3.33;1.92;;;14.70;99.90;;;;;;5154524;27;20087;-67
2023/03/24 03:43:14;;;;;;;2.10;1.52;;;14.70;99.90;;;;;;5133336;27;20023;-67
2023/03/24 03:45:40;;;;;;;4.15;2.13;;;14.70;99.90;;;;;;5133096;27;20555;-67
2023/03/24 03:48:05;;;;;;;3.33;1.92;;;14.60;99.90;;;;;;5132347;27;20109;-68
2023/03/24 03:50:32;;;;;;;3.63;1.40;;;14.60;99.90;;;;;;5133890;27;20366;-67
2023/03/24 03:52:57;;;;;;;3.00;1.50;;;14.60;99.90;;;;;;5147047;27;20109;-68
2023/03/24 03:55:23;;;;;;;1.80;1.48;;;14.60;99.90;;;;;;5154476;27;20506;-68
2023/03/24 03:57:49;;;;;;;3.65;1.42;;;14.50;99.90;;;;;;5154318;27;20019;-68
2023/03/24 04:00:19;;;;;;;3.92;1.50;;;14.50;99.90;;;;;;5153556;27;20035;-68
2023/03/24 04:03:22;;;;;;;2.00;1.60;;;14.50;99.90;;;;;;5154565;27;20035;-68
2023/03/24 04:06:03;;;;;;;2.38;1.42;;;14.50;99.90;;;;;;5153372;27;20658;-68
2023/03/24 04:08:51;;;;;;;6.22;1.58;;;14.50;99.90;;;;;;5154626;27;20027;-68
2023/03/24 04:11:42;;;;;;;2.47;1.65;;;14.50;99.90;;;;;;5149086;27;20025;-68
2023/03/24 04:14:23;;;;;;;2.95;1.75;;;14.50;99.90;;;;;;5153400;27;20447;-70
2023/03/24 04:16:56;;;;;;;3.78;1.55;;;14.50;99.90;;;;;;5153654;27;20468;-68
2023/03/24 04:19:42;;;;;;;2.17;1.80;;;14.40;99.90;;;;;;5135848;27;20062;-66
2023/03/24 04:22:11;;;;;;;4.57;1.50;;;14.50;99.90;;;;;;5152767;27;20049;-67
2023/03/24 04:24:53;;;;;;;3.08;1.50;;;14.50;99.90;;;;;;5154308;27;20054;-68
2023/03/24 04:27:39;;;;;;;2.22;1.60;;;14.50;99.90;;;;;;5153897;27;20023;-68
2023/03/24 04:30:25;;;;;;;2.83;1.42;;;14.50;99.90;;;;;;5149028;27;20469;-67
2023/03/24 04:33:01;;;;;;;3.15;1.40;;;14.50;99.90;;;;;;5153182;27;20031;-68
2023/03/24 04:35:39;;;;;;;3.20;1.60;;;14.40;99.90;;;;;;5153201;27;20039;-68
2023/03/24 04:38:15;;;;;;;1.70;1.60;;;14.50;99.90;;;;;;5153110;27;20035;-66
2023/03/24 04:40:45;;;;;;;3.45;1.77;;;14.50;99.90;;;;;;5153483;27;20522;-68
2023/03/24 04:43:15;;;;;;;4.28;1.60;;;14.40;99.90;;;;;;5153065;27;20030;-68
2023/03/24 04:45:48;;;;;;;3.35;2.15;;;14.50;99.90;;;;;;5147780;27;20368;-68
2023/03/24 04:48:16;;;;;;;2.45;1.70;;;14.50;99.90;;;;;;5126295;27;20473;-68
2023/03/24 04:50:47;;;;;;;3.90;1.73;;;14.50;99.90;;;;;;5153072;27;20030;-68
2023/03/24 04:53:13;;;;;;;2.80;1.83;;;14.60;99.90;;;;;;5152957;27;20031;-68
2023/03/24 04:55:49;;;;;;;3.58;1.70;;;14.60;99.90;;;;;;5153274;27;20096;-68
2023/03/24 04:58:16;;;;;;;3.78;1.80;;;14.70;99.90;;;;;;5152815;27;20027;-68
2023/03/24 05:00:43;;;;;;;2.78;1.42;;;14.80;99.90;;;;;;5152754;27;20409;-68
2023/03/24 05:03:15;;;;;;;2.60;1.73;;;14.80;99.90;;;;;;5138553;27;20470;-68
2023/03/24 05:05:47;;;;;;;1.88;1.30;;;14.90;99.90;;;;;;5131943;27;20022;-67
2023/03/24 05:08:13;;;;;;;1.65;1.40;;;15.00;99.90;;;;;;5131747;27;20121;-67
2023/03/24 05:10:39;;;;;;;4.88;1.58;;;15.00;99.90;;;;;;5132289;27;20023;-67
2023/03/24 05:13:06;;;;;;;3.55;1.60;;;15.10;99.90;;;;;;5131931;27;20061;-67
2023/03/24 05:15:31;;;;;;;1.55;1.27;;;15.10;99.90;;;;;;5151192;27;20489;-67
2023/03/24 05:17:57;;;;;;;1.60;1.27;;;15.10;99.90;;;;;;5152425;27;20037;-68
2023/03/24 05:20:24;;;;;;;2.25;1.35;;;15.10;99.90;;;;;;5152698;27;20429;-68
2023/03/24 05:22:50;;;;;;;4.85;1.42;;;15.10;99.90;;;;;;5147891;27;20023;-68
2023/03/24 05:25:17;;;;;;;1.40;1.30;;;15.10;99.90;;;;;;5152517;27;20019;-67
2023/03/24 05:27:43;;;;;;;1.98;1.30;;;15.10;99.90;;;;;;5153449;27;20071;-66
2023/03/24 05:30:09;;;;;;;1.95;1.55;;;15.10;99.90;;;;;;5151934;27;20054;-67
2023/03/24 05:32:35;;;;;;;2.25;1.42;;;15.10;99.90;;;;;;5153153;27;20083;-67
2023/03/24 05:35:01;;;;;;;3.78;1.90;;;15.10;99.90;;;;;;5152526;27;20022;-67
2023/03/24 05:37:26;;;;;;;2.70;1.85;;;15.00;99.90;;;;;;5153927;27;20346;-68
2023/03/24 05:39:53;;;;;;;1.83;1.15;;;14.80;99.90;;;;;;5147844;27;20473;-68
2023/03/24 05:42:19;;;;;;;2.53;1.58;;;14.60;99.90;;;;;;5147928;27;20027;-67
2023/03/24 05:44:45;;;;;;;1.52;1.42;;;14.30;99.90;;;;;;5153489;27;20022;-68
2023/03/24 05:47:14;;;;;;;3.42;1.70;;;14.00;99.90;;;;;;5151085;27;20051;-68
2023/03/24 05:49:41;;;;;;;2.43;1.60;;;13.70;99.90;;;;;;5152879;27;20058;-68
2023/03/24 05:52:08;;;;;;;2.10;1.38;;;13.60;99.90;;;;;;5151815;27;20256;-68
2023/03/24 05:54:35;;;;;;;2.10;1.90;;;13.40;99.90;;;;;;5152929;27;20026;-67
2023/03/24 05:57:00;;;;;;;2.42;1.88;;;13.30;99.90;;;;;;5146659;27;20053;-68
2023/03/24 05:59:26;;;;;;;2.10;1.70;;;13.30;99.90;;;;;;5152595;27;20062;-68
2023/03/24 06:01:55;;;;;;;2.22;1.77;;;13.20;99.90;;;;;;5151383;27;20072;-68
2023/03/24 06:04:22;;;;;;;2.03;1.52;;;13.20;99.90;;;;;;5152926;27;20023;-67
2023/03/24 06:06:47;;;;;;;2.47;2.03;;;13.10;99.90;;;;;;5152483;27;20073;-68
2023/03/24 06:09:15;;;;;;;2.10;1.90;;;13.00;99.90;;;;;;5152213;27;20476;-68
2023/03/24 06:11:44;;;;;;;1.98;1.75;;;12.90;99.90;;;;;;5155654;27;20330;-67
2023/03/24 06:14:10;;;;;;;3.05;2.13;;;12.90;99.90;;;;;;5140050;27;20051;-68
2023/03/24 06:16:38;;;;;;;2.80;2.05;;;12.80;99.90;;;;;;5150656;27;20046;-67
2023/03/24 06:19:05;;;;;;;3.40;2.30;;;12.80;99.90;;;;;;5155540;27;20030;-68
2023/03/24 06:21:32;;;;;;;2.78;2.25;;;12.80;99.90;;;;;;5156095;27;20046;-66
2023/03/24 06:23:58;;;;;;;2.92;2.03;;;12.80;99.90;;;;;;5155825;27;20110;-67
2023/03/24 06:26:23;;;;;;;2.67;2.20;;;12.70;99.90;;;;;;5156163;27;20101;-66
2023/03/24 06:28:52;;;;;;;3.00;2.28;;;12.70;99.90;;;;;;5156360;27;20027;-67
2023/03/24 06:31:20;;;;;;;2.40;2.20;;;12.80;99.90;;;;;;5149064;27;20034;-68
2023/03/24 06:33:46;;;;;;;2.38;2.15;;;12.80;99.90;;;;;;5149442;27;20436;-68
2023/03/24 06:36:13;;;;;;;4.13;2.58;;;12.80;99.90;;;;;;5146664;27;20042;-67
2023/03/24 06:38:40;;;;;;;2.42;2.17;;;12.90;99.90;;;;;;5145305;27;20123;-68
2023/03/24 06:41:06;;;;;;;4.93;2.50;;;12.90;99.90;;;;;;5148684;27;20050;-69
2023/03/24 06:43:33;;;;;;;3.38;2.72;;;12.90;99.90;;;;;;5147353;27;20544;-70
2023/03/24 06:45:59;;;;;;;3.28;2.30;;;13.00;99.90;;;;;;5147628;27;20469;-69
2023/03/24 06:48:26;;;;;;;3.33;2.33;;;13.10;99.90;;;;;;5142381;27;20533;-68
2023/03/24 06:50:52;;;;;;;4.15;2.63;;;13.10;99.90;;;;;;5154960;27;20019;-71
2023/03/24 06:53:20;;;;;;;2.90;2.38;;;13.20;99.90;;;;;;5149119;27;20094;-68
2023/03/24 06:55:49;;;;;;;2.80;2.60;;;13.30;99.90;;;;;;5126146;27;20458;-67
2023/03/24 06:58:16;;;;;;;4.03;2.50;;;13.30;99.90;;;;;;5134086;27;20027;-68
2023/03/24 07:00:43;;;;;;;2.85;2.22;;;13.30;99.90;;;;;;5132383;27;20030;-67
2023/03/24 07:03:10;;;;;;;6.45;3.20;;;13.40;99.90;;;;;;5153740;27;20076;-68
2023/03/24 07:05:41;;;;;;;3.72;2.65;;;13.50;99.90;;;;;;5148706;27;20096;-68
2023/03/24 07:08:06;;;;;;;;;;;13.50;99.90;;;;;;5144444;27;20025;-67
2023/03/24 07:10:35;;;;;;;4.30;2.33;;;13.50;99.90;;;;;;5146448;27;19907;-67
2023/03/24 07:13:02;;;;;;;3.75;2.58;;;13.50;99.90;;;;;;5154246;27;20094;-68
2023/03/24 07:15:28;;;;;;;4.88;2.38;;;13.60;99.90;;;;;;5145210;27;20103;-68
2023/03/24 07:17:54;;;;;;;4.30;2.80;;;13.60;99.90;;;;;;5153843;27;20425;-68
2023/03/24 07:20:20;;;;;;;5.60;3.13;;;13.60;99.90;;;;;;5146675;27;20122;-68
2023/03/24 07:22:46;;;;;;;3.85;2.58;;;13.40;99.90;;;;;;5154606;27;20029;-68
2023/03/24 07:25:13;;;;;;;2.97;2.53;;;13.30;99.90;;;;;;5153281;27;20129;-68
2023/03/24 07:27:39;;;;;;;3.80;2.78;;;13.20;99.90;;;;;;5154847;27;20037;-67
2023/03/24 07:30:06;;;;;;;4.97;2.80;;;13.00;99.90;;;;;;5153458;27;20044;-67
2023/03/24 07:32:38;;;;;;;6.03;2.85;;;12.90;99.90;;;;;;5153720;27;20050;-68
2023/03/24 07:35:05;;;;;;;5.10;3.15;;;12.70;99.90;;;;;;5152814;27;20079;-68
2023/03/24 07:37:31;;;;;;;5.10;3.22;;;12.60;99.90;;;;;;5154618;27;20056;-68
2023/03/24 07:39:57;;;;;;;6.30;3.22;;;12.50;99.90;;;;;;5152868;27;20031;-68
2023/03/24 07:42:23;;;;;;;7.38;3.55;;;12.50;99.90;;;;;;5154268;27;20061;-68
2023/03/24 07:44:49;;;;;;;7.00;3.08;;;12.40;99.90;;;;;;5154315;27;20029;-67
2023/03/24 07:47:15;;;;;;;4.25;3.33;;;12.30;99.90;;;;;;5152705;27;20042;-67
2023/03/24 07:49:40;;;;;;;4.38;3.72;;;12.30;99.90;;;;;;5153692;27;20031;-67
2023/03/24 07:52:06;;;;;;;4.53;3.50;;;12.20;99.90;;;;;;5153086;27;20414;-68
2023/03/24 07:54:35;;;;;;;6.97;3.53;;;12.20;99.90;;;;;;5154050;27;20019;-68
2023/03/24 07:57:01;;;;;;;3.90;3.38;;;12.20;99.90;;;;;;5153256;27;20039;-68
2023/03/24 07:59:26;;;;;;;6.65;3.28;;;12.20;99.90;;;;;;5149586;27;20035;-68
2023/03/24 08:01:52;;;;;;;4.07;3.05;;;12.20;99.90;;;;;;5152922;27;20082;-68
2023/03/24 08:04:18;;;;;;;5.47;3.72;;;12.20;99.90;;;;;;5153601;27;20023;-68
2023/03/24 08:06:44;;;;;;;3.55;3.22;;;12.20;99.90;;;;;;5153307;27;20033;-68
2023/03/24 08:09:10;;;;;;;6.50;3.75;;;12.20;99.90;;;;;;5153316;27;20034;-68
2023/03/24 08:11:37;;;;;;;5.93;3.97;;;12.20;99.90;;;;;;5153871;27;20018;-67
2023/03/24 08:14:02;;;;;;;6.97;3.70;;;12.20;99.90;;;;;;5153334;27;20026;-67
2023/03/24 08:16:28;;;;;;;6.00;3.22;;;12.10;99.90;;;;;;5152950;27;20031;-67
2023/03/24 08:18:57;;;;;;;6.85;3.80;;;12.10;99.90;;;;;;5152832;27;20122;-69
2023/03/24 08:21:23;;;;;;;4.78;3.33;;;12.20;99.90;;;;;;5152757;27;20022;-68
2023/03/24 08:23:48;;;;;;;4.63;3.15;;;12.20;99.90;;;;;;5153940;27;20079;-68
2023/03/24 08:26:14;;;;;;;4.72;3.25;;;12.20;99.90;;;;;;5152136;27;20059;-67
2023/03/24 08:28:40;;;;;;;5.90;3.40;;;12.20;99.90;;;;;;5153600;27;20465;-67
2023/03/24 08:31:06;;;;;;;6.03;3.25;;;12.20;99.90;;;;;;5152247;27;20015;-68
2023/03/24 08:33:32;;;;;;;6.07;3.60;;;12.20;99.90;;;;;;5153270;27;20027;-67
2023/03/24 08:35:59;;;;;;;6.40;3.67;;;12.30;99.90;;;;;;5143498;27;20099;-68
2023/03/24 08:38:29;;;;;;;6.53;3.97;;;12.30;99.90;;;;;;5150057;27;20031;-68
2023/03/24 08:40:57;;;;;;;5.85;3.50;;;12.40;99.90;;;;;;5151685;27;20026;-69
2023/03/24 08:43:24;;;;;;;6.13;3.70;;;12.40;99.90;;;;;;5152612;27;20087;-69
2023/03/24 08:45:50;;;;;;;3.80;3.30;;;12.60;99.90;;;;;;5152400;27;20133;-68
2023/03/24 08:48:15;;;;;;;5.32;3.67;;;12.70;99.90;;;;;;5152882;27;20114;-68
2023/03/24 08:50:41;;;;;;;4.68;2.97;;;12.80;99.90;;;;;;5151510;27;20031;-68
2023/03/24 08:53:08;;;;;;;4.18;3.20;;;12.90;99.90;;;;;;5146125;27;20031;-69
2023/03/24 08:55:36;;;;;;;4.05;2.90;;;12.90;99.90;;;;;;5151638;27;20022;-68
2023/03/24 08:58:01;;;;;;;5.07;3.08;;;13.00;99.90;;;;;;5151928;27;20034;-69
2023/03/24 09:00:27;;;;;;;2.80;2.42;;;13.10;99.90;;;;;;5150058;27;20026;-68
2023/03/24 09:02:55;;;;;;;3.22;2.33;;;13.20;99.90;;;;;;5152407;27;20050;-68
2023/03/24 09:05:22;;;;;;;4.93;2.83;;;13.30;99.90;;;;;;5152473;27;20520;-67
2023/03/24 09:07:50;;;;;;;3.05;2.20;;;13.50;99.90;;;;;;5152860;27;20465;-67
2023/03/24 09:10:16;;;;;;;5.00;2.03;;;13.50;99.90;;;;;;5152129;27;20026;-67
2023/03/24 09:12:43;;;;;;;2.85;2.20;;;13.60;99.90;;;;;;5150038;27;20507;-67
2023/03/24 09:15:10;;;;;;;4.18;2.60;;;13.70;99.90;;;;;;5133316;27;20019;-68
2023/03/24 09:17:36;;;;;;;3.22;2.28;;;13.80;99.90;;;;;;5152719;27;20023;-67
2023/03/24 09:20:10;;;;;;;3.63;2.17;;;13.80;99.90;;;;;;5151777;27;20039;-67
2023/03/24 09:22:37;;;;;;;3.33;2.13;;;13.90;99.90;;;;;;5152691;27;20501;-68
2023/03/24 09:25:03;;;;;;;4.47;2.22;;;13.90;99.90;;;;;;5151845;27;20098;-69
2023/03/24 09:27:28;;;;;;;4.32;2.58;;;14.10;99.90;;;;;;5152258;27;20114;-68
2023/03/24 09:29:54;;;;;;;3.72;2.53;;;14.20;99.90;;;;;;5151770;27;20034;-68
2023/03/24 09:32:20;;;;;;;2.40;2.17;;;14.30;99.90;;;;;;5133528;27;20154;-67
2023/03/24 09:34:46;;;;;;;3.80;2.22;;;14.50;99.90;;;;;;5134436;27;20132;-67
2023/03/24 09:37:11;;;;;;;3.65;2.38;;;14.50;99.90;;;;;;5151412;27;20101;-67
2023/03/24 09:39:37;;;;;;;2.40;1.90;;;14.60;99.90;;;;;;5134454;27;20130;-67
2023/03/24 09:42:05;;;;;;;2.35;1.92;;;14.70;99.90;;;;;;5151880;27;20035;-67
2023/03/24 09:44:36;;;;;;;4.07;1.95;;;14.70;99.90;;;;;;5155565;27;20384;-68
2023/03/24 09:47:20;;;;;;;2.58;2.30;;;14.90;99.90;;;;;;5154506;27;20053;-68
2023/03/24 09:49:47;;;;;;;2.17;1.92;;;15.00;99.90;;;;;;5146171;27;20058;-67
2023/03/24 09:52:16;;;;;;;2.03;1.75;;;15.10;99.90;;;;;;5155123;27;20074;-67
2023/03/24 09:55:00;;;;;;;1.70;1.43;;;15.40;99.90;;;;;;5156051;27;20392;-67
2023/03/24 09:57:45;;;;;;;2.70;1.85;;;15.50;99.90;;;;;;5156494;27;20085;-68
2023/03/24 10:00:20;;;;;;;2.05;1.85;;;15.60;99.90;;;;;;5155319;27;20102;-68
2023/03/24 10:02:46;;;;;;;2.55;1.70;;;15.50;99.90;;;;;;5156299;27;20030;-67
2023/03/24 10:05:16;;;;;;;6.32;2.25;;;15.60;99.90;;;;;;5151945;27;20034;-68
2023/03/24 10:08:01;;;;;;;5.30;1.58;;;15.70;99.90;;;;;;5156057;27;20287;-67
2023/03/24 10:11:02;;;;;;;2.70;1.77;;;15.90;99.90;;;;;;5155853;27;20033;-67
2023/03/24 10:13:50;;;;;;;3.22;1.95;;;16.10;99.90;;;;;;5155795;27;20033;-68
2023/03/24 10:16:34;;;;;;;3.13;1.80;;;16.40;99.90;;;;;;5155651;27;20026;-68
2023/03/24 10:19:27;;;;;;;2.30;1.90;;;16.50;99.90;;;;;;5155803;27;20072;-68
2023/03/24 10:22:11;;;;;;;3.10;1.77;;;16.60;99.90;;;;;;5154640;27;20029;-69
2023/03/24 10:24:43;;;;;;;3.15;1.80;;;16.70;99.90;;;;;;5155807;27;20068;-68
2023/03/24 10:27:30;;;;;;;4.45;1.60;;;16.70;99.90;;;;;;5154904;27;20068;-68
2023/03/24 10:30:19;;;;;;;2.58;1.75;;;16.70;99.90;;;;;;5154406;27;20083;-69
2023/03/24 10:32:45;;;;;;;3.30;1.60;;;16.80;99.90;;;;;;5155897;27;20051;-69
2023/03/24 10:35:35;;;;;;;2.45;1.52;;;16.90;99.90;;;;;;5154901;27;20022;-68
2023/03/24 10:38:12;;;;;;;1.48;1.13;;;17.10;99.90;;;;;;5154188;27;20031;-68
2023/03/24 10:40:40;;;;;;;2.58;1.20;;;17.20;99.90;;;;;;5154873;27;20042;-68
2023/03/24 10:43:06;;;;;;;4.93;1.30;;;17.30;99.90;;;;;;5150572;27;20159;-67
2023/03/24 10:45:33;;;;;;;2.90;1.15;;;17.30;99.90;;;;;;5154744;27;20034;-67
2023/03/24 10:48:01;;;;;;;2.92;1.00;;;17.20;99.90;;;;;;5154365;27;20023;-68
2023/03/24 10:50:32;;;;;;;1.15;0.90;;;17.20;99.90;;;;;;5154651;27;20362;-68
2023/03/24 10:52:58;;;;;;;2.03;1.13;;;17.20;99.90;;;;;;5154762;27;20027;-68
2023/03/24 10:55:30;;;;;;;3.80;1.17;;;17.20;99.90;;;;;;5153963;27;20373;-68
2023/03/24 10:57:58;;;;;;;3.33;0.60;;;17.30;99.90;;;;;;5136181;27;20027;-69
2023/03/24 11:00:30;;;;;;;2.25;0.70;;;17.50;99.90;;;;;;5154745;27;20109;-68
2023/03/24 11:02:58;;;;;;;3.05;0.90;;;17.50;99.90;;;;;;5149834;27;20110;-69
2023/03/24 11:05:29;;;;;;;5.20;1.48;;;17.60;99.90;;;;;;5152915;27;20029;-69
2023/03/24 11:08:11;;;;;;;3.20;1.10;;;17.70;99.90;;;;;;5154355;27;20027;-69
2023/03/24 11:10:37;;;;;;;1.23;0.80;;;17.60;99.90;;;;;;5155079;27;20019;-68
2023/03/24 11:13:04;;;;;;;2.53;1.25;;;17.40;99.90;;;;;;5154150;27;20083;-69
2023/03/24 11:15:36;;;;;;;1.98;0.95;;;17.30;99.90;;;;;;5154295;27;20057;-68
2023/03/24 11:18:10;;;;;;;1.20;0.82;;;17.40;99.90;;;;;;5154062;27;20057;-69
2023/03/24 11:20:38;;;;;;;0.80;0.80;;;17.70;99.90;;;;;;5149958;27;20045;-67
2023/03/24 11:23:15;;;;;;;2.45;1.20;;;17.90;99.90;;;;;;5154291;27;20027;-68
2023/03/24 11:25:46;;;;;;;2.72;0.90;;;17.90;99.90;;;;;;5152633;27;20101;-68
2023/03/24 11:28:22;;;;;;;1.85;0.90;;;17.90;99.90;;;;;;5153993;27;20115;-68
2023/03/24 11:30:50;;;;;;;3.70;0.85;;;18.00;99.90;;;;;;5152597;27;20129;-67
2023/03/24 11:33:27;;;;;;;3.28;0.90;;;18.10;99.90;;;;;;5143911;27;20072;-67
2023/03/24 11:35:53;;;;;;;1.00;0.90;;;18.10;99.90;;;;;;5150944;27;20026;-67
2023/03/24 11:38:31;;;;;;;2.53;0.80;;;18.20;99.90;;;;;;5154847;27;20019;-68
2023/03/24 11:41:00;;;;;;;0.52;0.52;;;18.20;99.90;;;;;;5152790;27;20018;-68
2023/03/24 11:43:26;;;;;;;0.77;0.75;;;18.20;99.90;;;;;;5154279;27;20061;-68
2023/03/24 11:46:12;;;;;;;3.28;0.50;;;18.20;99.90;;;;;;5152366;27;20070;-69
2023/03/24 11:48:48;;;;;;;1.10;0.73;;;18.20;99.90;;;;;;5144168;27;20031;-68
2023/03/24 11:51:30;;;;;;;1.02;0.73;;;18.10;99.90;;;;;;5152725;27;20861;-68
2023/03/24 11:53:58;;;;;;;1.00;0.57;;;18.00;99.90;;;;;;5153305;27;20097;-69
2023/03/24 11:56:40;;;;;;;3.00;0.68;;;17.90;99.90;;;;;;5153020;27;20022;-68
2023/03/24 11:59:32;;;;;;;0.85;0.40;;;17.70;99.90;;;;;;5153259;27;20438;-68
2023/03/24 12:02:45;;;;;;;2.40;0.70;;;17.50;99.90;;;;;;5150543;27;20038;-67
2023/03/24 12:05:37;;;;;;;1.83;0.50;;;17.60;99.90;;;;;;5100202;27;20031;-68
2023/03/24 12:08:26;;;;;;;1.05;0.47;;;17.70;99.90;;;;;;5134406;27;20043;-68
2023/03/24 12:11:16;;;;;;;8.98;0.77;;;17.60;99.90;;;;;;5150871;27;20074;-69
2023/03/24 12:13:47;;;;;;;2.35;0.65;;;17.50;99.90;;;;;;5153756;27;20105;-67
2023/03/24 12:16:46;;;;;;;0.85;0.40;;;17.60;99.90;;;;;;5152338;27;20029;-67
2023/03/24 12:19:44;;;;;;;0.55;0.52;;;17.70;99.90;;;;;;5152749;27;20035;-67
2023/03/24 12:22:45;;;;;;;0.30;0.30;;;17.90;99.90;;;;;;5079256;27;20047;-68
2023/03/24 12:25:25;;;;;;;0.30;0.30;;;17.80;99.90;;;;;;5131233;27;20649;-69
2023/03/24 12:27:54;;;;;;;0.40;0.40;;;17.60;99.90;;;;;;5115400;27;20023;-71
2023/03/24 12:30:41;;;;;;;1.02;0.40;;;17.40;99.90;;;;;;5131814;27;20027;-70
2023/03/24 12:33:37;;;;;;;0.30;0.20;;;17.40;99.90;;;;;;5134534;27;20031;-69
2023/03/24 12:36:24;;;;;;;0.82;0.60;;;17.60;99.90;;;;;;5135030;27;20410;-69
2023/03/24 12:39:14;;;;;;;0.90;0.40;;;17.70;99.90;;;;;;5151950;27;20034;-69
2023/03/24 12:42:05;;;;;;;1.00;0.30;;;17.70;99.90;;;;;;5152645;27;20022;-68
2023/03/24 12:44:48;;;;;;;1.67;0.40;;;17.80;99.90;;;;;;5153685;27;20035;-68
2023/03/24 12:47:35;;;;;;;1.20;0.52;;;17.90;99.90;;;;;;5151609;27;20042;-68
2023/03/24 12:50:07;;;;;;;0.50;0.32;;;17.70;99.90;;;;;;5149346;27;20110;-68
2023/03/24 12:52:54;;;;;;;0.93;0.40;;;17.60;99.90;;;;;;5153401;27;20026;-69
2023/03/24 12:55:43;;;;;;;0.52;0.40;;;17.40;99.90;;;;;;5152240;27;20086;-69
2023/03/24 12:58:41;;;;;;;1.27;0.50;;;17.40;99.90;;;;;;5151433;27;20074;-69
2023/03/24 13:01:32;;;;;;;0.30;0.30;;;17.50;99.90;;;;;;5106771;27;20066;-69
2023/03/24 13:04:08;;;;;;;2.83;0.45;;;17.50;99.90;;;;;;5137625;27;20142;-69
2023/03/24 13:06:42;;;;;;;0.95;0.70;;;17.40;99.90;;;;;;5151088;27;20034;-69
2023/03/24 13:09:45;;;;;;;0.90;0.30;;;17.40;99.90;;;;;;5146145;27;20126;-70
2023/03/24 13:12:38;;;;;;;0.57;0.40;;;17.30;99.90;;;;;;5147106;27;20034;-69
2023/03/24 13:15:35;;;;;;;0.60;0.30;;;17.30;99.90;;;;;;5151975;27;20022;-69